createdAt,value
2022-11-23T00:00:37.380Z,84.80
2022-11-23T00:03:04.509Z,84.92
2022-11-23T00:05:31.512Z,85.12
2022-11-23T00:07:58.134Z,84.63
2022-11-23T00:10:24.786Z,84.35
2022-11-23T00:12:51.517Z,84.05
2022-11-23T00:15:18.311Z,83.34
2022-11-23T00:17:48.456Z,82.96
2022-11-23T00:20:15.285Z,83.61
2022-11-23T00:22:41.935Z,84.53
2022-11-23T00:27:48.319Z,84.02
2022-11-23T00:30:15.134Z,83.35
2022-11-23T00:32:41.772Z,82.62
2022-11-23T00:35:08.930Z,83.31
2022-11-23T00:37:35.548Z,82.40
2022-11-23T00:40:02.180Z,82.83
2022-11-23T00:42:30.616Z,82.89
2022-11-23T00:45:00.406Z,83.64
2022-11-23T00:47:27.043Z,83.01
2022-11-23T00:49:53.800Z,83.89
2022-11-23T00:54:52.907Z,85.42
2022-11-23T00:57:19.549Z,86.44
2022-11-23T00:59:46.220Z,84.73
2022-11-23T01:04:47.432Z,85.22
2022-11-23T01:07:14.073Z,85.44
2022-11-23T01:12:17.144Z,83.89
2022-11-23T01:14:43.832Z,85.09
2022-11-23T01:17:10.443Z,85.44
2022-11-23T01:19:37.165Z,85.62
2022-11-23T01:22:03.873Z,84.32
2022-11-23T01:24:30.703Z,85.84
2022-11-23T01:26:57.360Z,82.71
2022-11-23T01:29:24.628Z,83.01
2022-11-23T01:31:51.315Z,82.27
2022-11-23T01:34:18.172Z,82.14
2022-11-23T01:36:45.685Z,82.67
2022-11-23T01:39:13.312Z,82.33
2022-11-23T01:41:42.479Z,83.21
2022-11-23T01:44:30.373Z,82.17
2022-11-23T01:59:58.809Z,82.75
2022-11-23T02:02:28.342Z,82.72
2022-11-23T02:04:55.728Z,82.79
2022-11-23T02:09:57.867Z,82.81
2022-11-23T02:12:24.559Z,82.37
2022-11-23T02:14:51.376Z,82.24
2022-11-23T02:17:18.993Z,81.50
2022-11-23T02:19:57.441Z,81.91
2022-11-23T02:22:59.200Z,80.74
2022-11-23T02:25:46.032Z,81.14
2022-11-23T02:28:17.732Z,81.66
2022-11-23T02:30:48.318Z,81.93
2022-11-23T02:33:15.058Z,81.78
2022-11-23T02:36:26.344Z,81.81
2022-11-23T02:38:54.829Z,81.93
2022-11-23T02:43:56.920Z,82.31
2022-11-23T02:46:23.582Z,82.24
2022-11-23T02:48:50.213Z,82.70
2022-11-23T02:51:16.844Z,83.06
2022-11-23T02:53:43.416Z,82.27
2022-11-23T02:56:10.071Z,82.56
2022-11-23T02:58:36.672Z,82.82
2022-11-23T03:03:34.649Z,82.75
2022-11-23T03:08:33.054Z,81.90
2022-11-23T03:11:02.093Z,82.41
2022-11-23T03:13:28.749Z,82.68
2022-11-23T03:15:59.575Z,82.51
2022-11-23T03:18:26.401Z,82.56
2022-11-23T03:20:53.047Z,83.19
2022-11-23T03:23:19.723Z,82.41
2022-11-23T03:25:46.389Z,82.24
2022-11-23T03:28:13.091Z,82.17
2022-11-23T03:30:39.697Z,82.77
2022-11-23T03:33:06.338Z,83.14
2022-11-23T03:35:32.967Z,83.06
2022-11-23T03:43:02.278Z,84.58
2022-11-23T03:45:28.979Z,84.78
2022-11-23T03:47:55.665Z,83.94
2022-11-23T03:50:22.465Z,83.69
2022-11-23T03:52:50.018Z,82.04
2022-11-23T03:55:17.451Z,81.73
2022-11-23T03:57:44.130Z,81.63
2022-11-23T04:00:11.350Z,82.35
2022-11-23T04:02:38.022Z,81.95
2022-11-23T04:05:05.103Z,82.00
2022-11-23T04:07:31.811Z,81.46
2022-11-23T04:09:58.449Z,81.75
2022-11-23T04:12:26.143Z,81.50
2022-11-23T04:14:53.043Z,82.02
2022-11-23T04:17:19.822Z,82.37
2022-11-23T04:19:46.538Z,81.48
2022-11-23T04:22:13.237Z,81.06
2022-11-23T04:24:39.902Z,81.98
2022-11-23T04:27:06.553Z,81.19
2022-11-23T04:29:33.391Z,81.68
2022-11-23T04:32:00.225Z,82.23
2022-11-23T04:34:26.858Z,81.43
2022-11-23T04:36:53.536Z,81.04
2022-11-23T04:39:20.151Z,80.96
2022-11-23T04:44:24.563Z,81.25
2022-11-23T04:49:29.146Z,80.80
2022-11-23T04:51:56.034Z,80.08
2022-11-23T04:54:22.714Z,80.36
2022-11-23T04:56:49.337Z,80.11
2022-11-23T04:59:16.130Z,81.07
2022-11-23T05:01:42.754Z,83.13
2022-11-23T05:04:13.496Z,84.55
2022-11-23T05:06:42.973Z,85.31
2022-11-23T05:09:09.625Z,85.67
2022-11-23T05:11:36.241Z,86.11
2022-11-23T05:14:02.891Z,85.57
2022-11-23T05:16:29.522Z,85.62
2022-11-23T05:21:27.496Z,84.96
2022-11-23T05:23:54.167Z,84.74
2022-11-23T05:26:20.849Z,85.69
2022-11-23T05:28:47.458Z,87.00
2022-11-23T05:31:14.126Z,87.39
2022-11-23T05:33:40.784Z,87.18
2022-11-23T05:36:07.706Z,87.44
2022-11-23T05:38:34.531Z,87.11
2022-11-23T05:41:01.179Z,87.37
2022-11-23T05:43:27.859Z,87.93
2022-11-23T05:45:54.490Z,88.62
2022-11-23T05:48:21.146Z,88.12
2022-11-23T05:50:50.615Z,87.35
2022-11-23T05:53:17.407Z,86.39
2022-11-23T05:55:44.267Z,86.73
2022-11-23T05:58:10.897Z,85.76
2022-11-23T06:00:37.964Z,85.52
2022-11-23T06:03:04.805Z,84.79
2022-11-23T06:05:31.804Z,84.26
2022-11-23T06:10:29.742Z,83.31
2022-11-23T06:13:02.505Z,82.60
2022-11-23T06:15:29.288Z,83.63
2022-11-23T06:18:00.113Z,84.15
2022-11-23T06:20:27.222Z,84.39
2022-11-23T06:22:54.935Z,84.21
2022-11-23T06:25:22.237Z,84.55
2022-11-23T06:27:56.802Z,84.96
2022-11-23T06:30:24.435Z,84.69
2022-11-23T06:32:51.253Z,84.85
2022-11-23T06:35:18.015Z,84.15
2022-11-23T06:37:44.725Z,83.91
2022-11-23T06:40:12.247Z,85.40
2022-11-23T06:42:40.168Z,83.99
2022-11-23T06:45:08.083Z,83.90
2022-11-23T06:47:35.042Z,84.87
2022-11-23T06:50:01.672Z,86.68
2022-11-23T06:52:28.946Z,86.10
2022-11-23T06:54:55.607Z,86.33
2022-11-23T06:57:22.257Z,86.98
2022-11-23T06:59:49.253Z,87.42
2022-11-23T07:04:47.226Z,88.22
2022-11-23T07:07:13.932Z,88.01
2022-11-23T07:09:40.631Z,88.40
2022-11-23T07:12:07.706Z,88.65
2022-11-23T07:14:34.377Z,88.25
2022-11-23T07:17:01.044Z,88.64
2022-11-23T07:19:27.668Z,88.92
2022-11-23T07:21:54.435Z,88.83
2022-11-23T07:24:21.024Z,89.15
2022-11-23T07:26:47.640Z,89.01
2022-11-23T07:29:14.364Z,89.47
2022-11-23T07:31:41.013Z,89.76
2022-11-23T07:34:09.444Z,89.76
2022-11-23T07:36:36.152Z,90.50
2022-11-23T07:39:03.825Z,89.95
2022-11-23T07:41:30.520Z,89.60
2022-11-23T07:43:57.192Z,89.32
2022-11-23T07:46:23.819Z,89.38
2022-11-23T07:48:50.753Z,89.22
2022-11-23T07:51:19.710Z,89.44
2022-11-23T07:53:47.123Z,89.15
2022-11-23T07:56:13.849Z,88.49
2022-11-23T07:58:40.445Z,88.45
2022-11-23T08:01:07.114Z,87.62
2022-11-23T08:03:33.981Z,87.52
2022-11-23T08:06:00.806Z,87.79
2022-11-23T08:08:27.596Z,87.54
2022-11-23T08:10:54.810Z,86.75
2022-11-23T08:13:22.478Z,86.88
2022-11-23T08:15:55.058Z,86.23
2022-11-23T08:18:23.471Z,85.65
2022-11-23T08:20:50.216Z,84.32
2022-11-23T08:23:16.938Z,83.25
2022-11-23T08:25:43.702Z,81.61
2022-11-23T08:28:11.007Z,80.90
2022-11-23T08:30:38.207Z,80.49
2022-11-23T08:33:06.395Z,78.96
2022-11-23T08:35:37.352Z,77.32
2022-11-23T08:38:05.330Z,78.09
2022-11-23T08:40:32.690Z,76.74
2022-11-23T08:42:59.493Z,75.62
2022-11-23T08:45:26.734Z,76.06
2022-11-23T08:47:54.269Z,76.19
2022-11-23T08:52:59.307Z,76.46
2022-11-23T08:55:27.682Z,75.64
2022-11-23T08:57:58.001Z,74.81
2022-11-23T09:00:26.371Z,75.17
2022-11-23T09:02:53.078Z,74.39
2022-11-23T09:05:20.006Z,73.66
2022-11-23T09:07:46.719Z,73.62
2022-11-23T09:10:18.072Z,72.17
2022-11-23T09:12:45.407Z,72.25
2022-11-23T09:15:12.401Z,70.72
2022-11-23T09:17:39.071Z,70.39
2022-11-23T09:22:38.317Z,69.43
2022-11-23T09:25:06.961Z,68.58
2022-11-23T09:27:33.732Z,68.06
2022-11-23T09:30:00.333Z,66.85
2022-11-23T09:32:26.992Z,67.64
2022-11-23T09:34:53.767Z,67.66
2022-11-23T09:37:20.472Z,68.31
2022-11-23T09:39:47.232Z,69.46
2022-11-23T09:42:16.663Z,67.88
2022-11-23T09:47:42.673Z,67.64
2022-11-23T09:50:18.311Z,67.61
2022-11-23T09:52:48.360Z,68.71
2022-11-23T09:55:21.811Z,69.43
2022-11-23T09:57:50.921Z,69.26
2022-11-23T10:00:21.457Z,68.82
2022-11-23T10:02:48.408Z,68.78
2022-11-23T10:05:18.961Z,69.99
2022-11-23T10:10:45.932Z,71.38
2022-11-23T10:13:20.765Z,72.37
2022-11-23T10:16:02.634Z,72.16
2022-11-23T10:18:43.963Z,71.58
2022-11-23T10:21:30.318Z,71.87
2022-11-23T10:24:08.661Z,72.76
2022-11-23T10:26:40.124Z,71.06
2022-11-23T10:29:45.337Z,72.26
2022-11-23T10:32:38.104Z,70.65
2022-11-23T10:35:12.884Z,67.09
2022-11-23T10:37:40.698Z,68.91
2022-11-23T10:40:20.047Z,67.87
2022-11-23T10:43:03.232Z,67.29
2022-11-23T10:45:30.073Z,66.39
2022-11-23T10:48:01.557Z,67.08
2022-11-23T10:50:30.388Z,66.41
2022-11-23T10:53:20.178Z,65.77
2022-11-23T10:58:44.525Z,66.55
2022-11-23T11:01:23.293Z,66.07
2022-11-23T11:03:51.964Z,65.98
2022-11-23T11:06:26.300Z,64.77
2022-11-23T11:09:03.692Z,62.60
2022-11-23T11:11:33.851Z,63.68
2022-11-23T11:14:06.577Z,62.79
2022-11-23T11:16:37.853Z,62.61
2022-11-23T11:19:27.650Z,62.95
2022-11-23T11:21:54.941Z,63.15
2022-11-23T11:24:30.657Z,61.78
2022-11-23T11:27:04.316Z,61.19
2022-11-23T11:29:39.939Z,61.71
2022-11-23T11:32:17.699Z,62.76
2022-11-23T11:34:47.229Z,62.83
2022-11-23T11:37:42.710Z,62.83
2022-11-23T11:40:48.384Z,62.89
2022-11-23T11:43:22.846Z,62.02
2022-11-23T11:46:28.581Z,63.36
2022-11-23T11:49:06.691Z,64.84
2022-11-23T11:54:46.089Z,63.04
2022-11-23T11:57:31.947Z,59.07
2022-11-23T12:00:01.810Z,59.89
2022-11-23T12:02:33.951Z,59.76
2022-11-23T12:05:22.574Z,59.80
2022-11-23T12:08:07.921Z,58.75
2022-11-23T12:10:55.461Z,56.51
2022-11-23T12:13:29.964Z,55.28
2022-11-23T12:16:23.552Z,55.29
2022-11-23T12:19:14.783Z,55.81
2022-11-23T12:21:44.202Z,54.69
2022-11-23T12:24:25.426Z,55.46
2022-11-23T12:27:00.271Z,53.23
2022-11-23T12:32:55.495Z,54.61
2022-11-23T12:38:10.050Z,54.64
2022-11-23T12:40:57.872Z,52.53
2022-11-23T12:43:36.402Z,53.85
2022-11-23T12:46:15.196Z,54.03
2022-11-23T12:49:13.487Z,53.92
2022-11-23T12:52:19.170Z,50.91
2022-11-23T12:55:19.585Z,50.89
2022-11-23T12:57:56.593Z,52.03
2022-11-23T13:00:24.130Z,50.83
2022-11-23T13:02:50.666Z,50.63
2022-11-23T13:05:23.255Z,50.71
2022-11-23T13:08:10.080Z,50.94
2022-11-23T13:10:53.482Z,51.42
2022-11-23T13:13:49.410Z,51.62
2022-11-23T13:22:31.789Z,52.01
2022-11-23T13:25:23.680Z,52.73
2022-11-23T13:27:50.292Z,53.07
2022-11-23T13:30:23.279Z,53.54
2022-11-23T13:32:59.371Z,54.10
2022-11-23T13:35:25.953Z,54.73
2022-11-23T13:37:58.151Z,55.01
2022-11-23T13:40:34.240Z,55.54
2022-11-23T13:43:27.248Z,55.64
2022-11-23T13:46:28.979Z,56.25
2022-11-23T13:48:59.364Z,56.84
2022-11-23T13:51:31.978Z,56.01
2022-11-23T13:54:19.635Z,56.82
2022-11-23T13:56:46.717Z,56.51
2022-11-23T13:59:27.915Z,57.03
2022-11-23T14:02:25.852Z,57.91
2022-11-23T14:04:52.905Z,57.59
2022-11-23T14:07:26.651Z,57.88
2022-11-23T14:10:18.189Z,57.26
2022-11-23T14:12:52.246Z,57.54
2022-11-23T14:15:21.973Z,58.15
2022-11-23T14:17:57.909Z,58.52
2022-11-23T14:20:27.093Z,57.92
2022-11-23T14:25:49.235Z,57.75
2022-11-23T14:28:37.328Z,57.99
2022-11-23T14:31:18.276Z,58.65
2022-11-23T14:33:55.864Z,60.61
2022-11-23T14:36:32.093Z,58.65
2022-11-23T14:39:25.307Z,57.21
2022-11-23T14:41:56.534Z,56.46
2022-11-23T14:44:27.122Z,58.05
2022-11-23T14:47:04.995Z,57.85
2022-11-23T14:49:31.931Z,56.69
2022-11-23T14:51:59.836Z,56.45
2022-11-23T14:54:27.949Z,56.89
2022-11-23T14:56:59.539Z,55.62
2022-11-23T14:59:29.914Z,56.10
2022-11-23T15:02:00.661Z,56.40
2022-11-23T15:04:38.762Z,56.59
2022-11-23T15:07:12.074Z,55.46
2022-11-23T15:09:41.424Z,56.07
2022-11-23T15:12:41.733Z,55.65
2022-11-23T15:15:20.985Z,57.53
2022-11-23T15:18:02.130Z,57.66
2022-11-23T15:20:33.468Z,58.32
2022-11-23T15:23:03.954Z,58.78
2022-11-23T15:25:31.999Z,59.40
2022-11-23T15:27:58.765Z,59.30
2022-11-23T15:30:30.611Z,59.77
2022-11-23T15:33:11.624Z,59.20
2022-11-23T15:35:40.291Z,59.55
2022-11-23T15:38:12.847Z,59.24
2022-11-23T15:40:43.200Z,59.84
2022-11-23T15:43:14.109Z,59.80
2022-11-23T15:45:46.588Z,59.86
2022-11-23T15:51:05.645Z,59.58
2022-11-23T15:53:42.548Z,60.38
2022-11-23T15:56:27.132Z,60.35
2022-11-23T15:58:54.689Z,59.48
2022-11-23T16:01:22.509Z,58.46
2022-11-23T16:03:56.718Z,58.87
2022-11-23T16:06:28.344Z,59.00
2022-11-23T16:08:54.979Z,59.28
2022-11-23T16:11:34.607Z,58.59
2022-11-23T16:17:17.887Z,60.29
2022-11-23T16:19:49.431Z,59.56
2022-11-23T16:22:47.257Z,60.03
2022-11-23T16:25:21.627Z,60.01
2022-11-23T16:30:41.127Z,61.05
2022-11-23T16:33:15.585Z,59.14
2022-11-23T16:35:42.291Z,59.49
2022-11-23T16:38:09.042Z,59.76
2022-11-23T16:40:35.820Z,59.98
2022-11-23T16:43:04.312Z,60.89
2022-11-23T16:45:31.989Z,61.47
2022-11-23T16:50:41.055Z,61.98
2022-11-23T16:53:14.758Z,60.96
2022-11-23T16:55:43.759Z,62.62
2022-11-23T16:58:15.384Z,62.48
2022-11-23T17:00:42.585Z,64.34
2022-11-23T17:03:19.228Z,63.39
2022-11-23T17:05:46.531Z,70.99
2022-11-23T17:08:18.165Z,65.09
2022-11-23T17:10:50.170Z,65.68
2022-11-23T17:13:28.817Z,66.67
2022-11-23T17:15:56.055Z,66.74
2022-11-23T17:18:22.736Z,67.26
2022-11-23T17:20:49.566Z,70.80
2022-11-23T17:23:16.424Z,69.60
2022-11-23T17:25:43.224Z,70.65
2022-11-23T17:28:21.456Z,71.83
2022-11-23T17:30:48.237Z,72.33
2022-11-23T17:33:14.890Z,72.39
2022-11-23T17:35:41.638Z,72.83
2022-11-23T17:38:16.867Z,75.11
2022-11-23T17:40:43.607Z,76.20
2022-11-23T17:43:15.884Z,76.47
2022-11-23T17:45:44.153Z,75.23
2022-11-23T17:50:44.390Z,77.36
2022-11-23T17:53:11.535Z,79.48
2022-11-23T17:55:38.413Z,80.62
2022-11-23T17:58:06.019Z,81.17
2022-11-23T18:00:33.147Z,80.03
2022-11-23T18:05:31.818Z,81.86
2022-11-23T18:07:59.108Z,81.35
2022-11-23T18:12:58.037Z,84.17
2022-11-23T18:15:24.678Z,83.45
2022-11-23T18:17:51.368Z,83.29
2022-11-23T18:20:18.144Z,84.50
2022-11-23T18:22:44.835Z,84.90
2022-11-23T18:25:11.624Z,87.21
2022-11-23T18:27:38.381Z,88.86
2022-11-23T18:30:05.688Z,92.85
2022-11-23T18:32:32.400Z,91.27
2022-11-23T18:34:58.991Z,91.79
2022-11-23T18:37:25.605Z,91.30
2022-11-23T18:42:23.477Z,90.50
2022-11-23T18:44:50.120Z,90.90
2022-11-23T18:47:16.833Z,91.64
2022-11-23T18:52:14.856Z,93.92
2022-11-23T18:54:41.583Z,93.82
2022-11-23T18:59:57.553Z,95.57
2022-11-23T19:02:24.856Z,97.06
2022-11-23T19:04:51.520Z,97.69
2022-11-23T19:07:22.193Z,97.37
2022-11-23T19:12:24.845Z,97.95
2022-11-23T19:14:51.636Z,96.54
2022-11-23T19:17:18.394Z,97.25
2022-11-23T19:19:45.049Z,96.41
2022-11-23T19:22:11.789Z,96.24
2022-11-23T19:27:09.982Z,96.98
2022-11-23T19:29:36.846Z,96.86
2022-11-23T19:32:03.758Z,97.80
2022-11-23T19:34:30.431Z,99.21
2022-11-23T19:36:57.089Z,97.20
2022-11-23T19:39:24.118Z,99.06
2022-11-23T19:41:50.877Z,99.59
2022-11-23T19:44:17.686Z,98.49
2022-11-23T19:49:15.846Z,98.87
2022-11-23T19:51:42.626Z,97.78
2022-11-23T19:56:41.361Z,100.00
2022-11-23T20:01:43.385Z,98.07
2022-11-23T20:09:21.231Z,100.00
2022-11-23T20:11:51.211Z,100.00
2022-11-23T20:19:34.371Z,100.00
2022-11-23T20:22:01.264Z,100.00
2022-11-23T20:24:27.913Z,100.00
2022-11-23T20:32:12.362Z,100.00
2022-11-23T20:34:39.020Z,100.00
2022-11-23T20:37:06.608Z,100.00
2022-11-23T20:42:06.058Z,100.00
2022-11-23T20:44:34.265Z,100.00
2022-11-23T20:47:02.821Z,100.00
2022-11-23T20:49:30.475Z,100.00
2022-11-23T20:54:29.165Z,100.00
2022-11-23T20:56:58.186Z,100.00
2022-11-23T20:59:25.070Z,100.00
2022-11-23T21:01:52.333Z,100.00
2022-11-23T21:04:19.028Z,100.00
2022-11-23T21:06:45.676Z,100.00
2022-11-23T21:17:17.392Z,100.00
2022-11-23T21:19:44.001Z,100.00
2022-11-23T21:22:14.920Z,100.00
2022-11-23T21:24:42.266Z,100.00
2022-11-23T21:32:30.646Z,100.00
2022-11-23T21:37:34.910Z,100.00
2022-11-23T21:42:32.886Z,100.00
2022-11-23T21:44:59.866Z,100.00
2022-11-23T21:49:58.031Z,100.00
2022-11-23T21:52:24.923Z,100.00
2022-11-23T21:54:51.625Z,100.00
2022-11-23T21:59:57.253Z,100.00
2022-11-23T22:04:55.126Z,100.00
2022-11-23T22:09:55.080Z,100.00
2022-11-23T22:14:59.569Z,100.00
2022-11-23T22:17:26.431Z,100.00
2022-11-23T22:19:53.131Z,100.00
2022-11-23T22:22:19.970Z,100.00
2022-11-23T22:24:46.680Z,100.00
2022-11-23T22:27:13.286Z,100.00
2022-11-23T22:32:11.213Z,100.00
2022-11-23T22:34:38.201Z,100.00
2022-11-23T22:37:10.278Z,100.00
2022-11-23T22:42:09.164Z,100.00
2022-11-23T22:47:07.046Z,100.00
2022-11-23T22:49:33.666Z,100.00
2022-11-23T22:52:00.325Z,100.00
2022-11-23T22:54:29.041Z,100.00
2022-11-23T22:56:55.692Z,100.00
2022-11-23T22:59:22.320Z,100.00
2022-11-23T23:31:38.451Z,96.78
2022-11-23T23:34:05.130Z,96.69
2022-11-23T23:36:31.825Z,95.71
2022-11-23T23:38:58.626Z,96.80
2022-11-23T23:41:25.341Z,97.56
2022-11-23T23:43:52.060Z,97.64
2022-11-23T23:46:19.109Z,97.92
2022-11-23T23:48:46.282Z,97.96
2022-11-23T23:51:21.124Z,97.66
2022-11-23T23:56:27.802Z,100.00
2022-11-23T23:58:59.239Z,99.56
